sensor_id;sensor_type;location;lat;lon;timestamp;pressure;altitude;pressure_sealevel;temperature;humidity
33554;BME280;19885;42.208;24.952;2022-08-21T00:01:02;99211.53;;;21.52;87.77
33554;BME280;19885;42.208;24.952;2022-08-21T00:03:28;99222.25;;;21.31;88.31
33554;BME280;19885;42.208;24.952;2022-08-21T00:05:53;99227.69;;;21.10;88.94
33554;BME280;19885;42.208;24.952;2022-08-21T00:08:20;99214.72;;;21.41;89.40
33554;BME280;19885;42.208;24.952;2022-08-21T00:10:46;99216.81;;;21.89;88.25
33554;BME280;19885;42.208;24.952;2022-08-21T00:13:14;99209.81;;;22.05;87.17
33554;BME280;19885;42.208;24.952;2022-08-21T00:15:41;99209.09;;;22.01;86.61
33554;BME280;19885;42.208;24.952;2022-08-21T00:18:08;99221.16;;;21.90;86.43
33554;BME280;19885;42.208;24.952;2022-08-21T00:20:39;99223.69;;;21.93;86.88
33554;BME280;19885;42.208;24.952;2022-08-21T00:23:06;99232.72;;;21.89;87.16
33554;BME280;19885;42.208;24.952;2022-08-21T00:25:32;99236.25;;;22.07;86.49
33554;BME280;19885;42.208;24.952;2022-08-21T00:27:57;99226.72;;;22.20;86.44
33554;BME280;19885;42.208;24.952;2022-08-21T00:30:24;99211.44;;;22.25;85.84
33554;BME280;19885;42.208;24.952;2022-08-21T00:32:52;99190.56;;;22.17;85.81
33554;BME280;19885;42.208;24.952;2022-08-21T00:35:20;99198.09;;;22.09;85.67
33554;BME280;19885;42.208;24.952;2022-08-21T00:37:46;99189.81;;;21.98;86.27
33554;BME280;19885;42.208;24.952;2022-08-21T00:40:19;99187.94;;;22.00;87.12
33554;BME280;19885;42.208;24.952;2022-08-21T00:42:46;99193.78;;;21.89;87.12
33554;BME280;19885;42.208;24.952;2022-08-21T00:45:11;99196.91;;;21.97;87.34
33554;BME280;19885;42.208;24.952;2022-08-21T00:47:37;99203.03;;;22.17;86.90
33554;BME280;19885;42.208;24.952;2022-08-21T00:50:05;99203.72;;;22.20;86.54
33554;BME280;19885;42.208;24.952;2022-08-21T00:52:34;99216.03;;;22.04;87.08
33554;BME280;19885;42.208;24.952;2022-08-21T00:55:02;99166.31;;;21.90;87.02
33554;BME280;19885;42.208;24.952;2022-08-21T00:57:36;99197.16;;;22.27;86.58
33554;BME280;19885;42.208;24.952;2022-08-21T01:00:09;99186.19;;;22.33;84.69
33554;BME280;19885;42.208;24.952;2022-08-21T01:02:35;99164.75;;;21.86;85.44
33554;BME280;19885;42.208;24.952;2022-08-21T01:05:02;99191.03;;;21.74;87.18
33554;BME280;19885;42.208;24.952;2022-08-21T01:07:28;99200.03;;;21.70;87.70
33554;BME280;19885;42.208;24.952;2022-08-21T01:09:54;99202.69;;;21.34;89.64
33554;BME280;19885;42.208;24.952;2022-08-21T01:12:23;99165.78;;;21.29;89.57
33554;BME280;19885;42.208;24.952;2022-08-21T01:14:49;99202.53;;;22.09;87.58
33554;BME280;19885;42.208;24.952;2022-08-21T01:17:15;99198.31;;;22.22;86.13
33554;BME280;19885;42.208;24.952;2022-08-21T01:19:41;99190.56;;;22.17;85.86
33554;BME280;19885;42.208;24.952;2022-08-21T01:22:07;99190.09;;;22.26;86.09
33554;BME280;19885;42.208;24.952;2022-08-21T01:24:33;99177.16;;;22.37;85.16
33554;BME280;19885;42.208;24.952;2022-08-21T01:26:59;99166.34;;;22.40;84.88
33554;BME280;19885;42.208;24.952;2022-08-21T01:29:42;99166.06;;;22.46;84.64
33554;BME280;19885;42.208;24.952;2022-08-21T01:32:14;99165.81;;;22.51;83.74
33554;BME280;19885;42.208;24.952;2022-08-21T01:34:42;99173.31;;;22.60;83.24
33554;BME280;19885;42.208;24.952;2022-08-21T01:37:09;99181.06;;;22.64;84.08
33554;BME280;19885;42.208;24.952;2022-08-21T01:39:36;99176.75;;;22.62;83.70
33554;BME280;19885;42.208;24.952;2022-08-21T01:42:02;99182.44;;;22.72;83.58
33554;BME280;19885;42.208;24.952;2022-08-21T01:44:28;99179.69;;;22.73;82.96
33554;BME280;19885;42.208;24.952;2022-08-21T01:46:54;99182.59;;;22.68;82.89
33554;BME280;19885;42.208;24.952;2022-08-21T01:49:21;99184.78;;;22.60;82.34
33554;BME280;19885;42.208;24.952;2022-08-21T01:51:47;99182.28;;;22.40;82.66
33554;BME280;19885;42.208;24.952;2022-08-21T01:54:12;99176.97;;;22.57;83.42
33554;BME280;19885;42.208;24.952;2022-08-21T01:56:45;99179.25;;;22.31;83.62
33554;BME280;19885;42.208;24.952;2022-08-21T01:59:11;99195.41;;;22.26;83.40
33554;BME280;19885;42.208;24.952;2022-08-21T02:01:40;99197.69;;;22.34;83.52
33554;BME280;19885;42.208;24.952;2022-08-21T02:04:10;99200.16;;;22.54;83.26
33554;BME280;19885;42.208;24.952;2022-08-21T02:06:36;99211.34;;;22.60;83.19
33554;BME280;19885;42.208;24.952;2022-08-21T02:09:04;99239.56;;;22.63;83.48
33554;BME280;19885;42.208;24.952;2022-08-21T02:11:31;99248.53;;;22.60;83.29
33554;BME280;19885;42.208;24.952;2022-08-21T02:13:56;99253.84;;;22.60;83.97
33554;BME280;19885;42.208;24.952;2022-08-21T02:16:22;99257.13;;;22.48;83.63
33554;BME280;19885;42.208;24.952;2022-08-21T02:18:47;99268.28;;;22.55;84.10
33554;BME280;19885;42.208;24.952;2022-08-21T02:21:13;99271.63;;;22.58;83.76
33554;BME280;19885;42.208;24.952;2022-08-21T02:23:39;99242.25;;;22.44;83.50
33554;BME280;19885;42.208;24.952;2022-08-21T02:26:06;99260.34;;;22.55;83.60
33554;BME280;19885;42.208;24.952;2022-08-21T02:28:32;99262.91;;;22.39;84.25
33554;BME280;19885;42.208;24.952;2022-08-21T02:30:58;99263.97;;;22.35;84.87
33554;BME280;19885;42.208;24.952;2022-08-21T02:33:25;99261.50;;;22.32;84.78
33554;BME280;19885;42.208;24.952;2022-08-21T02:35:51;99265.09;;;22.31;85.35
33554;BME280;19885;42.208;24.952;2022-08-21T02:38:20;99261.88;;;22.25;85.37
33554;BME280;19885;42.208;24.952;2022-08-21T02:40:48;99268.19;;;22.22;85.60
33554;BME280;19885;42.208;24.952;2022-08-21T02:43:15;99270.22;;;22.17;85.58
33554;BME280;19885;42.208;24.952;2022-08-21T02:45:41;99284.13;;;22.22;85.69
33554;BME280;19885;42.208;24.952;2022-08-21T02:48:10;99281.44;;;22.24;85.76
33554;BME280;19885;42.208;24.952;2022-08-21T02:50:44;99279.38;;;22.29;85.80
33554;BME280;19885;42.208;24.952;2022-08-21T02:53:13;99277.66;;;22.28;85.26
33554;BME280;19885;42.208;24.952;2022-08-21T02:55:40;99280.97;;;22.33;84.91
33554;BME280;19885;42.208;24.952;2022-08-21T02:58:07;99273.06;;;22.31;84.81
33554;BME280;19885;42.208;24.952;2022-08-21T03:00:35;99270.81;;;22.24;84.80
33554;BME280;19885;42.208;24.952;2022-08-21T03:03:01;99282.25;;;22.24;85.25
33554;BME280;19885;42.208;24.952;2022-08-21T03:05:29;99274.47;;;22.21;85.40
33554;BME280;19885;42.208;24.952;2022-08-21T03:07:58;99267.50;;;22.19;84.79
33554;BME280;19885;42.208;24.952;2022-08-21T03:10:24;99271.53;;;22.09;84.62
33554;BME280;19885;42.208;24.952;2022-08-21T03:12:50;99271.63;;;22.07;85.39
33554;BME280;19885;42.208;24.952;2022-08-21T03:15:18;99277.50;;;22.14;85.94
33554;BME280;19885;42.208;24.952;2022-08-21T03:17:46;99271.97;;;22.18;86.02
33554;BME280;19885;42.208;24.952;2022-08-21T03:20:13;99269.28;;;22.18;85.74
33554;BME280;19885;42.208;24.952;2022-08-21T03:22:39;99283.34;;;22.03;85.67
33554;BME280;19885;42.208;24.952;2022-08-21T03:25:06;99282.47;;;22.02;86.35
33554;BME280;19885;42.208;24.952;2022-08-21T03:27:31;99253.31;;;21.84;86.42
33554;BME280;19885;42.208;24.952;2022-08-21T03:29:59;99284.91;;;22.07;85.77
33554;BME280;19885;42.208;24.952;2022-08-21T03:32:25;99280.97;;;22.33;85.92
33554;BME280;19885;42.208;24.952;2022-08-21T03:34:51;99288.91;;;22.50;84.88
33554;BME280;19885;42.208;24.952;2022-08-21T03:37:19;99290.03;;;22.46;84.90
33554;BME280;19885;42.208;24.952;2022-08-21T03:39:44;99276.75;;;22.46;84.67
33554;BME280;19885;42.208;24.952;2022-08-21T03:42:11;99280.09;;;22.49;84.21
33554;BME280;19885;42.208;24.952;2022-08-21T03:44:37;99276.50;;;22.50;84.32
33554;BME280;19885;42.208;24.952;2022-08-21T03:47:05;99294.63;;;22.59;84.95
33554;BME280;19885;42.208;24.952;2022-08-21T03:49:30;99274.63;;;22.69;84.91
33554;BME280;19885;42.208;24.952;2022-08-21T03:51:56;99283.41;;;22.72;83.71
33554;BME280;19885;42.208;24.952;2022-08-21T03:54:21;99281.81;;;22.67;83.67
33554;BME280;19885;42.208;24.952;2022-08-21T03:56:47;99246.22;;;22.37;84.32
33554;BME280;19885;42.208;24.952;2022-08-21T03:59:12;99287.28;;;22.47;84.82
33554;BME280;19885;42.208;24.952;2022-08-21T04:01:38;99287.59;;;22.58;85.71
33554;BME280;19885;42.208;24.952;2022-08-21T04:04:04;99299.34;;;22.72;84.20
33554;BME280;19885;42.208;24.952;2022-08-21T04:06:30;99306.22;;;22.76;84.51
33554;BME280;19885;42.208;24.952;2022-08-21T04:08:56;99297.28;;;22.77;83.96
33554;BME280;19885;42.208;24.952;2022-08-21T04:11:22;99290.56;;;22.69;84.85
33554;BME280;19885;42.208;24.952;2022-08-21T04:13:47;99287.31;;;22.64;84.84
33554;BME280;19885;42.208;24.952;2022-08-21T04:16:13;99288.16;;;22.65;85.05
33554;BME280;19885;42.208;24.952;2022-08-21T04:18:39;99287.59;;;22.58;85.66
33554;BME280;19885;42.208;24.952;2022-08-21T04:21:06;99289.47;;;22.56;85.31
33554;BME280;19885;42.208;24.952;2022-08-21T04:23:32;99240.09;;;22.18;85.41
33554;BME280;19885;42.208;24.952;2022-08-21T04:25:58;99284.94;;;22.41;85.34
33554;BME280;19885;42.208;24.952;2022-08-21T04:28:25;99276.09;;;22.58;85.59
33554;BME280;19885;42.208;24.952;2022-08-21T04:30:52;99272.28;;;22.46;85.62
33554;BME280;19885;42.208;24.952;2022-08-21T04:33:18;99277.28;;;22.52;84.67
33554;BME280;19885;42.208;24.952;2022-08-21T04:35:44;99255.38;;;21.77;87.07
33554;BME280;19885;42.208;24.952;2022-08-21T04:38:10;99278.81;;;22.22;87.42
33554;BME280;19885;42.208;24.952;2022-08-21T04:40:36;99272.72;;;22.20;86.31
33554;BME280;19885;42.208;24.952;2022-08-21T04:43:05;99283.03;;;22.09;86.33
33554;BME280;19885;42.208;24.952;2022-08-21T04:45:44;99275.94;;;22.10;87.93
33554;BME280;19885;42.208;24.952;2022-08-21T04:48:14;99249.63;;;22.05;85.95
33554;BME280;19885;42.208;24.952;2022-08-21T04:50:44;99279.78;;;22.21;83.63
33554;BME280;19885;42.208;24.952;2022-08-21T04:53:38;99273.69;;;22.19;83.62
33554;BME280;19885;42.208;24.952;2022-08-21T04:56:09;99275.31;;;22.22;83.58
33554;BME280;19885;42.208;24.952;2022-08-21T04:58:38;99279.69;;;22.23;83.68
33554;BME280;19885;42.208;24.952;2022-08-21T05:01:07;99287.44;;;22.27;83.80
33554;BME280;19885;42.208;24.952;2022-08-21T05:03:34;99288.06;;;22.32;84.49
33554;BME280;19885;42.208;24.952;2022-08-21T05:06:04;99277.66;;;22.28;85.29
33554;BME280;19885;42.208;24.952;2022-08-21T05:08:32;99265.31;;;22.27;85.78
33554;BME280;19885;42.208;24.952;2022-08-21T05:10:58;99258.31;;;22.26;86.38
33554;BME280;19885;42.208;24.952;2022-08-21T05:13:24;99268.19;;;22.22;86.35
33554;BME280;19885;42.208;24.952;2022-08-21T05:15:49;99261.03;;;22.24;86.97
33554;BME280;19885;42.208;24.952;2022-08-21T05:18:15;99247.59;;;22.10;86.61
33554;BME280;19885;42.208;24.952;2022-08-21T05:20:41;99253.59;;;22.14;86.81
33554;BME280;19885;42.208;24.952;2022-08-21T05:23:13;99275.38;;;22.20;87.05
33554;BME280;19885;42.208;24.952;2022-08-21T05:25:40;99229.41;;;22.02;86.67
33554;BME280;19885;42.208;24.952;2022-08-21T05:28:06;99264.78;;;22.20;86.92
33554;BME280;19885;42.208;24.952;2022-08-21T05:30:32;99253.13;;;22.23;86.88
33554;BME280;19885;42.208;24.952;2022-08-21T05:33:00;99241.09;;;22.16;87.56
33554;BME280;19885;42.208;24.952;2022-08-21T05:35:27;99247.28;;;22.16;87.44
33554;BME280;19885;42.208;24.952;2022-08-21T05:37:53;99236.97;;;22.10;87.85
33554;BME280;19885;42.208;24.952;2022-08-21T05:40:19;99204.41;;;22.07;86.74
33554;BME280;19885;42.208;24.952;2022-08-21T05:42:45;99197.06;;;22.12;86.54
33554;BME280;19885;42.208;24.952;2022-08-21T05:45:10;99235.25;;;22.43;87.44
33554;BME280;19885;42.208;24.952;2022-08-21T05:47:36;99245.31;;;22.54;87.05
33554;BME280;19885;42.208;24.952;2022-08-21T05:50:03;99231.06;;;22.39;87.66
33554;BME280;19885;42.208;24.952;2022-08-21T05:52:28;99246.97;;;22.56;87.25
33554;BME280;19885;42.208;24.952;2022-08-21T05:54:54;99226.13;;;22.66;86.74
33554;BME280;19885;42.208;24.952;2022-08-21T05:57:20;99236.03;;;22.80;86.67
33554;BME280;19885;42.208;24.952;2022-08-21T05:59:47;99242.44;;;22.76;85.99
33554;BME280;19885;42.208;24.952;2022-08-21T06:02:13;99254.78;;;22.77;85.53
33554;BME280;19885;42.208;24.952;2022-08-21T06:04:38;99256.59;;;22.42;86.59
33554;BME280;19885;42.208;24.952;2022-08-21T06:07:04;99269.13;;;22.04;89.50
33554;BME280;19885;42.208;24.952;2022-08-21T06:09:30;99273.00;;;21.97;90.49
33554;BME280;19885;42.208;24.952;2022-08-21T06:11:56;99257.84;;;21.63;92.03
33554;BME280;19885;42.208;24.952;2022-08-21T06:14:21;99276.63;;;21.59;93.84
33554;BME280;19885;42.208;24.952;2022-08-21T06:16:47;99261.22;;;21.48;93.89
33554;BME280;19885;42.208;24.952;2022-08-21T06:19:12;99267.53;;;21.46;94.03
33554;BME280;19885;42.208;24.952;2022-08-21T06:21:38;99221.75;;;21.23;95.38
33554;BME280;19885;42.208;24.952;2022-08-21T06:24:04;99272.31;;;21.38;96.19
33554;BME280;19885;42.208;24.952;2022-08-21T06:26:30;99268.31;;;21.48;95.20
33554;BME280;19885;42.208;24.952;2022-08-21T06:30:19;99278.78;;;21.51;95.64
33554;BME280;19885;42.208;24.952;2022-08-21T06:32:44;99288.09;;;21.41;96.70
33554;BME280;19885;42.208;24.952;2022-08-21T06:35:10;99271.81;;;21.67;96.29
33554;BME280;19885;42.208;24.952;2022-08-21T06:37:36;99283.34;;;22.03;93.82
33554;BME280;19885;42.208;24.952;2022-08-21T06:40:04;99282.56;;;22.18;92.22
33554;BME280;19885;42.208;24.952;2022-08-21T06:42:29;99281.78;;;22.33;91.73
33554;BME280;19885;42.208;24.952;2022-08-21T06:44:56;99278.53;;;22.28;91.71
33554;BME280;19885;42.208;24.952;2022-08-21T06:47:28;99281.00;;;22.14;92.97
33554;BME280;19885;42.208;24.952;2022-08-21T06:49:53;99262.47;;;22.13;92.04
33554;BME280;19885;42.208;24.952;2022-08-21T06:52:19;99274.72;;;22.51;90.63
33554;BME280;19885;42.208;24.952;2022-08-21T06:54:47;99274.28;;;22.58;90.18
33554;BME280;19885;42.208;24.952;2022-08-21T06:57:16;99281.34;;;22.94;88.21
33554;BME280;19885;42.208;24.952;2022-08-21T06:59:42;99261.63;;;22.98;88.26
33554;BME280;19885;42.208;24.952;2022-08-21T07:02:07;99259.53;;;22.87;87.72
33554;BME280;19885;42.208;24.952;2022-08-21T07:04:33;99264.34;;;22.81;89.04
33554;BME280;19885;42.208;24.952;2022-08-21T07:06:58;99258.13;;;23.13;87.97
33554;BME280;19885;42.208;24.952;2022-08-21T07:09:26;99255.13;;;23.36;87.09
33554;BME280;19885;42.208;24.952;2022-08-21T07:11:55;99256.69;;;23.23;86.16
33554;BME280;19885;42.208;24.952;2022-08-21T07:14:21;99252.19;;;23.40;86.16
33554;BME280;19885;42.208;24.952;2022-08-21T07:16:47;99250.66;;;23.52;84.50
33554;BME280;19885;42.208;24.952;2022-08-21T07:19:13;99241.06;;;23.50;84.17
33554;BME280;19885;42.208;24.952;2022-08-21T07:21:38;99236.94;;;23.44;83.55
33554;BME280;19885;42.208;24.952;2022-08-21T07:24:04;99228.72;;;23.49;84.05
33554;BME280;19885;42.208;24.952;2022-08-21T07:26:29;99224.06;;;23.52;83.81
33554;BME280;19885;42.208;24.952;2022-08-21T07:28:55;99223.28;;;23.50;83.57
33554;BME280;19885;42.208;24.952;2022-08-21T07:31:23;99232.91;;;23.53;83.02
33554;BME280;19885;42.208;24.952;2022-08-21T07:33:49;99234.44;;;23.57;82.07
33554;BME280;19885;42.208;24.952;2022-08-21T07:36:14;99227.50;;;23.54;83.67
33554;BME280;19885;42.208;24.952;2022-08-21T07:38:41;99235.81;;;23.48;82.99
33554;BME280;19885;42.208;24.952;2022-08-21T07:41:13;99222.69;;;23.45;82.37
33554;BME280;19885;42.208;24.952;2022-08-21T07:43:41;99226.13;;;23.47;83.01
33554;BME280;19885;42.208;24.952;2022-08-21T07:46:06;99229.47;;;23.51;82.44
33554;BME280;19885;42.208;24.952;2022-08-21T07:48:31;99231.13;;;23.53;82.81
33554;BME280;19885;42.208;24.952;2022-08-21T07:50:58;99235.38;;;23.56;83.16
33554;BME280;19885;42.208;24.952;2022-08-21T07:53:28;99215.47;;;23.47;83.23
33554;BME280;19885;42.208;24.952;2022-08-21T07:55:57;99234.34;;;23.58;82.60
33554;BME280;19885;42.208;24.952;2022-08-21T07:58:22;99224.72;;;23.56;84.43
33554;BME280;19885;42.208;24.952;2022-08-21T08:00:48;99219.16;;;23.60;83.88
33554;BME280;19885;42.208;24.952;2022-08-21T08:03:14;99207.56;;;23.61;82.85
33554;BME280;19885;42.208;24.952;2022-08-21T08:05:40;99220.47;;;23.69;82.52
33554;BME280;19885;42.208;24.952;2022-08-21T08:08:08;99206.53;;;23.64;81.57
33554;BME280;19885;42.208;24.952;2022-08-21T08:16:25;99232.97;;;23.82;79.79
33554;BME280;19885;42.208;24.952;2022-08-21T08:18:54;99229.53;;;23.80;81.04
33554;BME280;19885;42.208;24.952;2022-08-21T08:21:21;99232.78;;;23.85;82.60
33554;BME280;19885;42.208;24.952;2022-08-21T08:23:47;99229.34;;;23.83;80.07
33554;BME280;19885;42.208;24.952;2022-08-21T08:26:13;99226.13;;;23.78;80.48
33554;BME280;19885;42.208;24.952;2022-08-21T08:28:40;99219.06;;;23.77;81.01
33554;BME280;19885;42.208;24.952;2022-08-21T08:31:06;99215.09;;;23.84;81.06
33554;BME280;19885;42.208;24.952;2022-08-21T08:33:31;99223.44;;;23.94;80.70
33554;BME280;19885;42.208;24.952;2022-08-21T08:35:57;99213.63;;;23.94;82.72
33554;BME280;19885;42.208;24.952;2022-08-21T08:38:24;99219.19;;;23.90;80.11
33554;BME280;19885;42.208;24.952;2022-08-21T08:41:32;99224.34;;;23.93;81.74
33554;BME280;19885;42.208;24.952;2022-08-21T08:43:41;99205.66;;;23.79;80.53
33554;BME280;19885;42.208;24.952;2022-08-21T08:46:13;99221.47;;;23.82;81.02
33554;BME280;19885;42.208;24.952;2022-08-21T08:54:19;99212.28;;;23.87;80.74
33554;BME280;19885;42.208;24.952;2022-08-21T08:56:47;99206.34;;;23.82;81.59
33554;BME280;19885;42.208;24.952;2022-08-21T08:59:17;99205.31;;;23.85;80.65
33554;BME280;19885;42.208;24.952;2022-08-21T09:01:44;99170.16;;;23.64;80.83
33554;BME280;19885;42.208;24.952;2022-08-21T09:04:11;99195.50;;;23.85;80.19
33554;BME280;19885;42.208;24.952;2022-08-21T09:15:46;99195.84;;;23.95;80.69
33554;BME280;19885;42.208;24.952;2022-08-21T09:23:33;99198.59;;;24.09;81.19
33554;BME280;19885;42.208;24.952;2022-08-21T09:26:16;99198.06;;;24.02;80.47
33554;BME280;19885;42.208;24.952;2022-08-21T09:28:43;99193.50;;;24.04;79.51
33554;BME280;19885;42.208;24.952;2022-08-21T09:31:22;99192.41;;;24.08;79.38
33554;BME280;19885;42.208;24.952;2022-08-21T09:33:48;99192.91;;;23.99;78.78
33554;BME280;19885;42.208;24.952;2022-08-21T09:36:53;99193.44;;;23.90;79.89
33554;BME280;19885;42.208;24.952;2022-08-21T09:39:29;99191.69;;;24.21;79.04
33554;BME280;19885;42.208;24.952;2022-08-21T09:42:04;99192.50;;;24.37;78.55
33554;BME280;19885;42.208;24.952;2022-08-21T09:44:33;99191.91;;;24.32;78.93
33554;BME280;19885;42.208;24.952;2022-08-21T09:47:01;99190.16;;;24.31;78.88
33554;BME280;19885;42.208;24.952;2022-08-21T09:49:33;99196.66;;;24.41;77.15
33554;BME280;19885;42.208;24.952;2022-08-21T09:52:00;99194.59;;;24.46;76.97
33554;BME280;19885;42.208;24.952;2022-08-21T09:54:32;99193.84;;;24.44;76.86
33554;BME280;19885;42.208;24.952;2022-08-21T09:59:52;99188.72;;;24.55;75.95
33554;BME280;19885;42.208;24.952;2022-08-21T10:02:34;99183.19;;;24.72;77.27
33554;BME280;19885;42.208;24.952;2022-08-21T10:05:15;99184.53;;;24.51;75.42
33554;BME280;19885;42.208;24.952;2022-08-21T10:07:41;99170.88;;;24.27;74.52
33554;BME280;19885;42.208;24.952;2022-08-21T10:10:08;99180.81;;;24.67;75.80
33554;BME280;19885;42.208;24.952;2022-08-21T10:25:58;99140.31;;;25.17;71.43
33554;BME280;19885;42.208;24.952;2022-08-21T10:36:33;99115.13;;;24.95;72.10
33554;BME280;19885;42.208;24.952;2022-08-21T10:47:16;99170.81;;;24.71;74.14
33554;BME280;19885;42.208;24.952;2022-08-21T10:55:39;99172.75;;;25.38;71.04
33554;BME280;19885;42.208;24.952;2022-08-21T10:58:12;99168.41;;;25.23;72.95
33554;BME280;19885;42.208;24.952;2022-08-21T11:00:43;99177.81;;;25.42;72.93
33554;BME280;19885;42.208;24.952;2022-08-21T11:03:16;99126.38;;;25.26;70.67
33554;BME280;19885;42.208;24.952;2022-08-21T11:08:17;99159.94;;;25.84;71.19
33554;BME280;19885;42.208;24.952;2022-08-21T11:10:50;99170.00;;;25.80;69.90
33554;BME280;19885;42.208;24.952;2022-08-21T11:13:25;99168.38;;;25.78;70.22
33554;BME280;19885;42.208;24.952;2022-08-21T11:21:27;99177.91;;;25.82;69.53
33554;BME280;19885;42.208;24.952;2022-08-21T11:24:03;99173.72;;;25.78;69.58
33554;BME280;19885;42.208;24.952;2022-08-21T11:26:42;99168.44;;;25.64;70.46
33554;BME280;19885;42.208;24.952;2022-08-21T11:29:25;99133.13;;;25.73;69.51
33554;BME280;19885;42.208;24.952;2022-08-21T11:37:53;99157.84;;;25.89;69.06
33554;BME280;19885;42.208;24.952;2022-08-21T11:43:11;99079.97;;;25.43;70.05
33554;BME280;19885;42.208;24.952;2022-08-21T11:45:51;99139.88;;;25.91;70.83
33554;BME280;19885;42.208;24.952;2022-08-21T11:50:49;99131.75;;;25.92;69.64
33554;BME280;19885;42.208;24.952;2022-08-21T11:53:38;99133.44;;;25.81;70.31
33554;BME280;19885;42.208;24.952;2022-08-21T11:59:34;99129.88;;;26.07;69.43
33554;BME280;19885;42.208;24.952;2022-08-21T12:02:01;99130.16;;;25.90;69.87
33554;BME280;19885;42.208;24.952;2022-08-21T12:04:31;99138.47;;;25.73;69.94
33554;BME280;19885;42.208;24.952;2022-08-21T12:07:32;99121.47;;;25.74;71.62
33554;BME280;19885;42.208;24.952;2022-08-21T12:09:57;99125.53;;;25.79;71.45
33554;BME280;19885;42.208;24.952;2022-08-21T12:15:03;99125.72;;;25.64;71.61
33554;BME280;19885;42.208;24.952;2022-08-21T12:17:39;99120.31;;;25.78;73.01
33554;BME280;19885;42.208;24.952;2022-08-21T12:20:34;99114.59;;;25.96;71.20
33554;BME280;19885;42.208;24.952;2022-08-21T12:25:42;99122.56;;;25.84;70.39
33554;BME280;19885;42.208;24.952;2022-08-21T12:28:14;99110.38;;;25.80;70.86
33554;BME280;19885;42.208;24.952;2022-08-21T12:30:44;99091.16;;;25.75;70.90
33554;BME280;19885;42.208;24.952;2022-08-21T12:33:32;99108.28;;;25.85;69.67
33554;BME280;19885;42.208;24.952;2022-08-21T12:36:21;99101.63;;;25.90;69.81
33554;BME280;19885;42.208;24.952;2022-08-21T12:38:51;99106.75;;;25.81;70.50
33554;BME280;19885;42.208;24.952;2022-08-21T12:41:20;99101.41;;;25.81;69.33
33554;BME280;19885;42.208;24.952;2022-08-21T12:43:56;99096.97;;;25.94;69.62
33554;BME280;19885;42.208;24.952;2022-08-21T12:46:30;99087.53;;;25.88;69.26
33554;BME280;19885;42.208;24.952;2022-08-21T12:49:09;99101.00;;;25.87;70.13
33554;BME280;19885;42.208;24.952;2022-08-21T12:51:55;99101.34;;;25.56;70.24
33554;BME280;19885;42.208;24.952;2022-08-21T12:54:30;99100.56;;;25.80;68.80
33554;BME280;19885;42.208;24.952;2022-08-21T12:56:59;99087.34;;;25.91;70.29
33554;BME280;19885;42.208;24.952;2022-08-21T12:59:25;99044.13;;;25.60;70.23
33554;BME280;19885;42.208;24.952;2022-08-21T13:01:51;99075.00;;;25.76;69.27
33554;BME280;19885;42.208;24.952;2022-08-21T13:04:22;99081.56;;;25.85;68.37
33554;BME280;19885;42.208;24.952;2022-08-21T13:06:53;99078.97;;;25.71;69.12
33554;BME280;19885;42.208;24.952;2022-08-21T13:09:27;99090.63;;;25.82;68.95
33554;BME280;19885;42.208;24.952;2022-08-21T13:11:54;99016.06;;;25.40;68.44
33554;BME280;19885;42.208;24.952;2022-08-21T13:16:58;99085.38;;;25.68;68.54
33554;BME280;19885;42.208;24.952;2022-08-21T13:19:26;99091.16;;;25.75;68.91
33554;BME280;19885;42.208;24.952;2022-08-21T13:21:52;99089.66;;;25.71;68.48
33554;BME280;19885;42.208;24.952;2022-08-21T13:25:45;99070.72;;;25.61;68.33
33554;BME280;19885;42.208;24.952;2022-08-21T13:28:12;99072.63;;;25.59;68.01
33554;BME280;19885;42.208;24.952;2022-08-21T13:30:45;99083.00;;;25.64;67.86
33554;BME280;19885;42.208;24.952;2022-08-21T13:33:18;99087.50;;;25.63;67.26
33554;BME280;19885;42.208;24.952;2022-08-21T13:36:24;99080.66;;;25.59;67.83
33554;BME280;19885;42.208;24.952;2022-08-21T13:38:44;99077.13;;;25.59;68.26
33554;BME280;19885;42.208;24.952;2022-08-21T13:43:50;99077.47;;;25.67;66.04
33554;BME280;19885;42.208;24.952;2022-08-21T13:46:22;99030.13;;;25.56;66.64
33554;BME280;19885;42.208;24.952;2022-08-21T13:48:49;99062.00;;;25.84;66.98
33554;BME280;19885;42.208;24.952;2022-08-21T13:51:15;99071.94;;;25.95;67.53
33554;BME280;19885;42.208;24.952;2022-08-21T13:56:06;99080.66;;;26.11;68.05
33554;BME280;19885;42.208;24.952;2022-08-21T13:58:43;99066.72;;;26.06;66.90
33554;BME280;19885;42.208;24.952;2022-08-21T14:01:19;99072.06;;;26.06;66.89
33554;BME280;19885;42.208;24.952;2022-08-21T14:03:47;99033.91;;;25.79;67.92
33554;BME280;19885;42.208;24.952;2022-08-21T14:06:17;99080.94;;;25.94;68.50
33554;BME280;19885;42.208;24.952;2022-08-21T14:08:49;99072.38;;;25.89;67.29
33554;BME280;19885;42.208;24.952;2022-08-21T14:11:16;99071.09;;;25.82;68.30
33554;BME280;19885;42.208;24.952;2022-08-21T14:13:47;99066.91;;;25.78;67.67
33554;BME280;19885;42.208;24.952;2022-08-21T14:16:18;99073.75;;;25.82;68.48
33554;BME280;19885;42.208;24.952;2022-08-21T14:21:35;99006.38;;;25.39;68.87
33554;BME280;19885;42.208;24.952;2022-08-21T14:24:10;99054.19;;;25.69;68.92
33554;BME280;19885;42.208;24.952;2022-08-21T14:26:45;99051.41;;;25.58;68.27
33554;BME280;19885;42.208;24.952;2022-08-21T14:29:13;99057.78;;;25.55;68.55
33554;BME280;19885;42.208;24.952;2022-08-21T14:31:40;99054.69;;;25.48;67.61
33554;BME280;19885;42.208;24.952;2022-08-21T14:34:05;99047.03;;;25.42;67.90
33554;BME280;19885;42.208;24.952;2022-08-21T14:36:31;99039.16;;;25.41;68.16
33554;BME280;19885;42.208;24.952;2022-08-21T14:38:56;99041.94;;;25.39;68.36
33554;BME280;19885;42.208;24.952;2022-08-21T14:41:24;99023.25;;;25.39;68.74
33554;BME280;19885;42.208;24.952;2022-08-21T14:43:53;99031.81;;;25.44;68.65